sensor_id;sensor_type;location;lat;lon;timestamp;P1;durP1;ratioP1;P2;durP2;ratioP2
16147;SDS011;8179;59.364;18.018;2023-03-04T00:00:40;26.40;;;25.50;;
16147;SDS011;8179;59.364;18.018;2023-03-04T00:03:10;29.03;;;27.93;;
16147;SDS011;8179;59.364;18.018;2023-03-04T00:05:39;39.53;;;37.53;;
16147;SDS011;8179;59.364;18.018;2023-03-04T00:08:07;68.27;;;65.67;;
16147;SDS011;8179;59.364;18.018;2023-03-04T00:10:33;31.77;;;30.77;;
16147;SDS011;8179;59.364;18.018;2023-03-04T00:13:01;37.87;;;36.57;;
16147;SDS011;8179;59.364;18.018;2023-03-04T00:15:27;28.00;;;27.10;;
16147;SDS011;8179;59.364;18.018;2023-03-04T00:17:54;43.57;;;42.07;;
16147;SDS011;8179;59.364;18.018;2023-03-04T00:20:20;44.60;;;42.97;;
16147;SDS011;8179;59.364;18.018;2023-03-04T00:22:47;33.73;;;32.53;;
16147;SDS011;8179;59.364;18.018;2023-03-04T00:25:15;33.60;;;32.53;;
16147;SDS011;8179;59.364;18.018;2023-03-04T00:27:42;27.37;;;26.23;;
16147;SDS011;8179;59.364;18.018;2023-03-04T00:30:09;34.13;;;32.93;;
16147;SDS011;8179;59.364;18.018;2023-03-04T00:32:36;35.43;;;34.10;;
16147;SDS011;8179;59.364;18.018;2023-03-04T00:35:02;38.83;;;37.40;;
16147;SDS011;8179;59.364;18.018;2023-03-04T00:37:29;30.63;;;29.43;;
16147;SDS011;8179;59.364;18.018;2023-03-04T00:39:55;46.23;;;44.30;;
16147;SDS011;8179;59.364;18.018;2023-03-04T00:42:23;41.37;;;39.93;;
16147;SDS011;8179;59.364;18.018;2023-03-04T00:44:50;86.37;;;80.73;;
16147;SDS011;8179;59.364;18.018;2023-03-04T00:47:17;37.80;;;36.23;;
16147;SDS011;8179;59.364;18.018;2023-03-04T00:49:43;31.77;;;30.73;;
16147;SDS011;8179;59.364;18.018;2023-03-04T00:52:10;42.07;;;40.70;;
16147;SDS011;8179;59.364;18.018;2023-03-04T00:54:36;42.10;;;39.70;;
16147;SDS011;8179;59.364;18.018;2023-03-04T00:57:03;29.17;;;28.17;;
16147;SDS011;8179;59.364;18.018;2023-03-04T00:59:31;37.03;;;35.60;;
16147;SDS011;8179;59.364;18.018;2023-03-04T01:01:58;33.63;;;32.40;;
16147;SDS011;8179;59.364;18.018;2023-03-04T01:04:24;55.97;;;54.03;;
16147;SDS011;8179;59.364;18.018;2023-03-04T01:06:51;46.00;;;44.53;;
16147;SDS011;8179;59.364;18.018;2023-03-04T01:09:17;41.13;;;39.73;;
16147;SDS011;8179;59.364;18.018;2023-03-04T01:11:44;51.83;;;50.20;;
16147;SDS011;8179;59.364;18.018;2023-03-04T01:14:10;37.43;;;36.10;;
16147;SDS011;8179;59.364;18.018;2023-03-04T01:16:38;39.77;;;38.43;;
16147;SDS011;8179;59.364;18.018;2023-03-04T01:19:05;128.00;;;120.77;;
16147;SDS011;8179;59.364;18.018;2023-03-04T01:21:31;40.90;;;39.63;;
16147;SDS011;8179;59.364;18.018;2023-03-04T01:23:58;37.17;;;35.90;;
16147;SDS011;8179;59.364;18.018;2023-03-04T01:26:25;38.33;;;37.13;;
16147;SDS011;8179;59.364;18.018;2023-03-04T01:28:51;37.10;;;35.90;;
16147;SDS011;8179;59.364;18.018;2023-03-04T01:31:18;65.90;;;63.67;;
16147;SDS011;8179;59.364;18.018;2023-03-04T01:33:46;48.90;;;46.93;;
16147;SDS011;8179;59.364;18.018;2023-03-04T01:36:12;64.57;;;62.00;;
16147;SDS011;8179;59.364;18.018;2023-03-04T01:38:39;42.70;;;41.20;;
16147;SDS011;8179;59.364;18.018;2023-03-04T01:41:05;38.53;;;37.33;;
16147;SDS011;8179;59.364;18.018;2023-03-04T01:43:32;35.40;;;34.27;;
16147;SDS011;8179;59.364;18.018;2023-03-04T01:46:00;46.67;;;45.03;;
16147;SDS011;8179;59.364;18.018;2023-03-04T01:48:28;34.33;;;33.27;;
16147;SDS011;8179;59.364;18.018;2023-03-04T01:50:57;34.27;;;33.20;;
16147;SDS011;8179;59.364;18.018;2023-03-04T01:53:27;32.53;;;31.53;;
16147;SDS011;8179;59.364;18.018;2023-03-04T01:55:54;30.40;;;29.43;;
16147;SDS011;8179;59.364;18.018;2023-03-04T01:58:22;62.43;;;60.27;;
16147;SDS011;8179;59.364;18.018;2023-03-04T02:00:49;82.77;;;78.87;;
16147;SDS011;8179;59.364;18.018;2023-03-04T02:03:16;32.23;;;31.13;;
16147;SDS011;8179;59.364;18.018;2023-03-04T02:05:44;40.87;;;39.57;;
16147;SDS011;8179;59.364;18.018;2023-03-04T02:08:13;25.30;;;24.40;;
16147;SDS011;8179;59.364;18.018;2023-03-04T02:10:40;34.00;;;32.87;;
16147;SDS011;8179;59.364;18.018;2023-03-04T02:13:10;26.10;;;25.30;;
16147;SDS011;8179;59.364;18.018;2023-03-04T02:15:37;41.57;;;39.57;;
16147;SDS011;8179;59.364;18.018;2023-03-04T02:18:06;24.27;;;23.47;;
16147;SDS011;8179;59.364;18.018;2023-03-04T02:20:38;27.57;;;26.67;;
16147;SDS011;8179;59.364;18.018;2023-03-04T02:23:08;27.73;;;26.73;;
16147;SDS011;8179;59.364;18.018;2023-03-04T02:25:40;23.13;;;22.27;;
16147;SDS011;8179;59.364;18.018;2023-03-04T02:28:09;34.40;;;32.97;;
16147;SDS011;8179;59.364;18.018;2023-03-04T02:30:35;22.03;;;21.33;;
16147;SDS011;8179;59.364;18.018;2023-03-04T02:33:02;41.20;;;39.57;;
16147;SDS011;8179;59.364;18.018;2023-03-04T02:35:29;87.50;;;82.90;;
16147;SDS011;8179;59.364;18.018;2023-03-04T02:37:55;20.20;;;19.60;;
16147;SDS011;8179;59.364;18.018;2023-03-04T02:40:22;29.90;;;28.77;;
16147;SDS011;8179;59.364;18.018;2023-03-04T02:42:51;23.07;;;22.17;;
16147;SDS011;8179;59.364;18.018;2023-03-04T02:45:36;19.23;;;18.53;;
16147;SDS011;8179;59.364;18.018;2023-03-04T02:48:03;21.30;;;20.63;;
16147;SDS011;8179;59.364;18.018;2023-03-04T02:50:33;18.63;;;17.93;;
16147;SDS011;8179;59.364;18.018;2023-03-04T02:53:00;193.73;;;172.17;;
16147;SDS011;8179;59.364;18.018;2023-03-04T02:55:26;51.70;;;50.07;;
16147;SDS011;8179;59.364;18.018;2023-03-04T02:57:53;34.60;;;32.60;;
16147;SDS011;8179;59.364;18.018;2023-03-04T03:00:20;69.23;;;66.73;;
16147;SDS011;8179;59.364;18.018;2023-03-04T03:02:48;23.80;;;22.70;;
16147;SDS011;8179;59.364;18.018;2023-03-04T03:05:15;223.03;;;212.07;;
16147;SDS011;8179;59.364;18.018;2023-03-04T03:07:41;374.40;;;329.97;;
16147;SDS011;8179;59.364;18.018;2023-03-04T03:10:08;50.13;;;47.97;;
16147;SDS011;8179;59.364;18.018;2023-03-04T03:12:35;96.13;;;91.63;;
16147;SDS011;8179;59.364;18.018;2023-03-04T03:15:02;185.03;;;177.20;;
16147;SDS011;8179;59.364;18.018;2023-03-04T03:17:28;52.33;;;50.57;;
16147;SDS011;8179;59.364;18.018;2023-03-04T03:19:57;120.13;;;115.93;;
16147;SDS011;8179;59.364;18.018;2023-03-04T03:22:23;128.90;;;124.07;;
16147;SDS011;8179;59.364;18.018;2023-03-04T03:24:50;242.30;;;230.30;;
16147;SDS011;8179;59.364;18.018;2023-03-04T03:27:17;42.47;;;41.13;;
16147;SDS011;8179;59.364;18.018;2023-03-04T03:29:45;48.37;;;46.47;;
16147;SDS011;8179;59.364;18.018;2023-03-04T03:32:12;194.77;;;181.43;;
16147;SDS011;8179;59.364;18.018;2023-03-04T03:34:38;247.37;;;233.00;;
16147;SDS011;8179;59.364;18.018;2023-03-04T03:37:06;662.07;;;587.93;;
16147;SDS011;8179;59.364;18.018;2023-03-04T03:39:33;44.50;;;43.00;;
16147;SDS011;8179;59.364;18.018;2023-03-04T03:42:00;311.30;;;294.87;;
16147;SDS011;8179;59.364;18.018;2023-03-04T03:44:26;293.27;;;273.33;;
16147;SDS011;8179;59.364;18.018;2023-03-04T03:46:53;31.13;;;29.60;;
16147;SDS011;8179;59.364;18.018;2023-03-04T03:49:19;70.83;;;68.40;;
16147;SDS011;8179;59.364;18.018;2023-03-04T03:51:46;42.77;;;41.40;;
16147;SDS011;8179;59.364;18.018;2023-03-04T03:54:14;119.87;;;116.00;;
16147;SDS011;8179;59.364;18.018;2023-03-04T03:56:40;77.33;;;74.97;;
16147;SDS011;8179;59.364;18.018;2023-03-04T03:59:07;225.33;;;216.20;;
16147;SDS011;8179;59.364;18.018;2023-03-04T04:01:34;95.53;;;92.07;;
16147;SDS011;8179;59.364;18.018;2023-03-04T04:04:00;346.97;;;328.13;;
16147;SDS011;8179;59.364;18.018;2023-03-04T04:06:27;52.20;;;50.23;;
16147;SDS011;8179;59.364;18.018;2023-03-04T04:08:53;45.30;;;43.93;;
16147;SDS011;8179;59.364;18.018;2023-03-04T04:11:21;40.37;;;39.07;;
16147;SDS011;8179;59.364;18.018;2023-03-04T04:13:48;96.50;;;93.27;;
16147;SDS011;8179;59.364;18.018;2023-03-04T04:16:14;163.67;;;157.47;;
16147;SDS011;8179;59.364;18.018;2023-03-04T04:18:41;179.47;;;172.83;;
16147;SDS011;8179;59.364;18.018;2023-03-04T04:21:07;421.40;;;400.23;;
16147;SDS011;8179;59.364;18.018;2023-03-04T04:23:34;114.47;;;110.80;;
16147;SDS011;8179;59.364;18.018;2023-03-04T04:26:01;112.17;;;108.10;;
16147;SDS011;8179;59.364;18.018;2023-03-04T04:28:29;48.33;;;46.83;;
16147;SDS011;8179;59.364;18.018;2023-03-04T04:30:55;68.30;;;65.70;;
16147;SDS011;8179;59.364;18.018;2023-03-04T04:33:22;77.50;;;74.53;;
16147;SDS011;8179;59.364;18.018;2023-03-04T04:35:48;110.67;;;106.90;;
16147;SDS011;8179;59.364;18.018;2023-03-04T04:38:15;86.27;;;83.40;;
16147;SDS011;8179;59.364;18.018;2023-03-04T04:40:42;120.03;;;115.93;;
16147;SDS011;8179;59.364;18.018;2023-03-04T04:43:08;125.23;;;120.60;;
16147;SDS011;8179;59.364;18.018;2023-03-04T04:45:36;200.00;;;192.50;;
16147;SDS011;8179;59.364;18.018;2023-03-04T04:48:03;84.67;;;81.67;;
16147;SDS011;8179;59.364;18.018;2023-03-04T04:50:29;134.70;;;129.13;;
16147;SDS011;8179;59.364;18.018;2023-03-04T04:52:56;192.93;;;185.03;;
16147;SDS011;8179;59.364;18.018;2023-03-04T04:55:22;330.37;;;314.50;;
16147;SDS011;8179;59.364;18.018;2023-03-04T04:57:49;175.67;;;168.80;;
16147;SDS011;8179;59.364;18.018;2023-03-04T05:00:16;350.33;;;331.10;;
16147;SDS011;8179;59.364;18.018;2023-03-04T05:02:44;257.37;;;244.90;;
16147;SDS011;8179;59.364;18.018;2023-03-04T05:05:11;41.33;;;39.57;;
16147;SDS011;8179;59.364;18.018;2023-03-04T05:07:38;55.97;;;54.10;;
16147;SDS011;8179;59.364;18.018;2023-03-04T05:10:04;173.57;;;167.40;;
16147;SDS011;8179;59.364;18.018;2023-03-04T05:12:31;125.40;;;121.00;;
16147;SDS011;8179;59.364;18.018;2023-03-04T05:14:57;148.47;;;142.73;;
16147;SDS011;8179;59.364;18.018;2023-03-04T05:17:24;210.70;;;202.17;;
16147;SDS011;8179;59.364;18.018;2023-03-04T05:19:52;200.13;;;192.40;;
16147;SDS011;8179;59.364;18.018;2023-03-04T05:22:18;63.03;;;60.70;;
16147;SDS011;8179;59.364;18.018;2023-03-04T05:24:45;138.47;;;134.07;;
16147;SDS011;8179;59.364;18.018;2023-03-04T05:27:12;47.97;;;46.50;;
16147;SDS011;8179;59.364;18.018;2023-03-04T05:29:38;51.57;;;49.80;;
16147;SDS011;8179;59.364;18.018;2023-03-04T05:32:06;109.90;;;105.93;;
16147;SDS011;8179;59.364;18.018;2023-03-04T05:34:33;484.23;;;458.70;;
16147;SDS011;8179;59.364;18.018;2023-03-04T05:37:01;54.57;;;52.33;;
16147;SDS011;8179;59.364;18.018;2023-03-04T05:39:27;180.87;;;174.53;;
16147;SDS011;8179;59.364;18.018;2023-03-04T05:41:54;96.80;;;93.37;;
16147;SDS011;8179;59.364;18.018;2023-03-04T05:44:20;97.50;;;94.20;;
16147;SDS011;8179;59.364;18.018;2023-03-04T05:46:47;76.07;;;73.43;;
16147;SDS011;8179;59.364;18.018;2023-03-04T05:49:14;62.67;;;60.57;;
16147;SDS011;8179;59.364;18.018;2023-03-04T05:51:40;240.23;;;229.10;;
16147;SDS011;8179;59.364;18.018;2023-03-04T05:54:08;105.03;;;101.57;;
16147;SDS011;8179;59.364;18.018;2023-03-04T05:56:35;273.40;;;262.53;;
16147;SDS011;8179;59.364;18.018;2023-03-04T05:59:01;63.43;;;61.33;;
16147;SDS011;8179;59.364;18.018;2023-03-04T06:01:28;140.50;;;135.03;;
16147;SDS011;8179;59.364;18.018;2023-03-04T06:03:55;425.07;;;397.40;;
16147;SDS011;8179;59.364;18.018;2023-03-04T06:06:22;116.77;;;112.70;;
16147;SDS011;8179;59.364;18.018;2023-03-04T06:08:48;72.80;;;69.43;;
16147;SDS011;8179;59.364;18.018;2023-03-04T06:11:16;125.53;;;121.13;;
16147;SDS011;8179;59.364;18.018;2023-03-04T06:13:43;54.93;;;53.07;;
16147;SDS011;8179;59.364;18.018;2023-03-04T06:16:10;132.90;;;128.17;;
16147;SDS011;8179;59.364;18.018;2023-03-04T06:18:37;98.77;;;95.60;;
16147;SDS011;8179;59.364;18.018;2023-03-04T06:21:04;70.33;;;67.83;;
16147;SDS011;8179;59.364;18.018;2023-03-04T06:23:31;59.83;;;57.80;;
16147;SDS011;8179;59.364;18.018;2023-03-04T06:25:58;194.90;;;186.23;;
16147;SDS011;8179;59.364;18.018;2023-03-04T06:28:27;54.00;;;52.30;;
16147;SDS011;8179;59.364;18.018;2023-03-04T06:30:54;258.90;;;247.33;;
16147;SDS011;8179;59.364;18.018;2023-03-04T06:33:21;344.30;;;325.67;;
16147;SDS011;8179;59.364;18.018;2023-03-04T06:35:48;340.30;;;324.13;;
16147;SDS011;8179;59.364;18.018;2023-03-04T06:38:18;140.33;;;135.63;;
16147;SDS011;8179;59.364;18.018;2023-03-04T06:40:45;100.27;;;96.53;;
16147;SDS011;8179;59.364;18.018;2023-03-04T06:43:11;38.63;;;37.37;;
16147;SDS011;8179;59.364;18.018;2023-03-04T06:45:39;84.00;;;81.10;;
16147;SDS011;8179;59.364;18.018;2023-03-04T06:48:06;107.60;;;104.03;;
16147;SDS011;8179;59.364;18.018;2023-03-04T06:50:32;81.23;;;78.30;;
16147;SDS011;8179;59.364;18.018;2023-03-04T06:52:59;58.90;;;57.03;;
16147;SDS011;8179;59.364;18.018;2023-03-04T06:55:26;96.07;;;93.07;;
16147;SDS011;8179;59.364;18.018;2023-03-04T06:57:58;125.73;;;119.77;;
16147;SDS011;8179;59.364;18.018;2023-03-04T07:00:25;28.30;;;27.03;;
16147;SDS011;8179;59.364;18.018;2023-03-04T07:02:55;231.10;;;219.33;;
16147;SDS011;8179;59.364;18.018;2023-03-04T07:05:23;47.87;;;46.40;;
16147;SDS011;8179;59.364;18.018;2023-03-04T07:07:51;139.83;;;133.17;;
16147;SDS011;8179;59.364;18.018;2023-03-04T07:10:18;45.73;;;44.23;;
16147;SDS011;8179;59.364;18.018;2023-03-04T07:12:44;36.17;;;34.97;;
16147;SDS011;8179;59.364;18.018;2023-03-04T07:15:11;36.80;;;35.63;;
16147;SDS011;8179;59.364;18.018;2023-03-04T07:17:40;52.37;;;50.77;;
16147;SDS011;8179;59.364;18.018;2023-03-04T07:20:18;52.63;;;51.00;;
16147;SDS011;8179;59.364;18.018;2023-03-04T07:22:44;47.10;;;45.50;;
16147;SDS011;8179;59.364;18.018;2023-03-04T07:25:11;95.03;;;91.73;;
16147;SDS011;8179;59.364;18.018;2023-03-04T07:27:37;36.70;;;35.50;;
16147;SDS011;8179;59.364;18.018;2023-03-04T07:30:05;238.67;;;229.03;;
16147;SDS011;8179;59.364;18.018;2023-03-04T07:32:32;116.40;;;112.40;;
16147;SDS011;8179;59.364;18.018;2023-03-04T07:34:59;53.43;;;51.43;;
16147;SDS011;8179;59.364;18.018;2023-03-04T07:37:27;40.33;;;38.47;;
16147;SDS011;8179;59.364;18.018;2023-03-04T07:39:54;122.13;;;117.97;;
16147;SDS011;8179;59.364;18.018;2023-03-04T07:42:21;376.67;;;228.03;;
16147;SDS011;8179;59.364;18.018;2023-03-04T07:44:47;318.67;;;300.27;;
16147;SDS011;8179;59.364;18.018;2023-03-04T07:47:14;87.53;;;84.70;;
16147;SDS011;8179;59.364;18.018;2023-03-04T07:49:40;50.53;;;48.83;;
16147;SDS011;8179;59.364;18.018;2023-03-04T07:52:07;210.17;;;200.53;;
16147;SDS011;8179;59.364;18.018;2023-03-04T07:54:35;125.93;;;121.30;;
16147;SDS011;8179;59.364;18.018;2023-03-04T07:57:02;37.00;;;35.70;;
16147;SDS011;8179;59.364;18.018;2023-03-04T07:59:28;205.37;;;196.97;;
16147;SDS011;8179;59.364;18.018;2023-03-04T08:01:55;49.03;;;47.40;;
16147;SDS011;8179;59.364;18.018;2023-03-04T08:04:23;45.07;;;43.17;;
16147;SDS011;8179;59.364;18.018;2023-03-04T08:06:49;66.57;;;64.30;;
16147;SDS011;8179;59.364;18.018;2023-03-04T08:09:16;663.23;;;603.37;;
16147;SDS011;8179;59.364;18.018;2023-03-04T08:11:44;118.53;;;112.73;;
16147;SDS011;8179;59.364;18.018;2023-03-04T08:14:11;1590.13;;;608.57;;
16147;SDS011;8179;59.364;18.018;2023-03-04T08:16:38;80.90;;;77.90;;
16147;SDS011;8179;59.364;18.018;2023-03-04T08:19:04;49.10;;;47.30;;
16147;SDS011;8179;59.364;18.018;2023-03-04T08:21:31;213.37;;;203.23;;
16147;SDS011;8179;59.364;18.018;2023-03-04T08:23:58;155.30;;;149.73;;
16147;SDS011;8179;59.364;18.018;2023-03-04T08:26:27;33.37;;;31.47;;
16147;SDS011;8179;59.364;18.018;2023-03-04T08:28:55;140.93;;;134.30;;
16147;SDS011;8179;59.364;18.018;2023-03-04T08:31:22;77.23;;;74.87;;
16147;SDS011;8179;59.364;18.018;2023-03-04T08:33:49;102.70;;;99.20;;
16147;SDS011;8179;59.364;18.018;2023-03-04T08:36:17;1004.27;;;758.77;;
16147;SDS011;8179;59.364;18.018;2023-03-04T08:38:43;69.60;;;67.40;;
16147;SDS011;8179;59.364;18.018;2023-03-04T08:41:10;56.13;;;54.30;;
16147;SDS011;8179;59.364;18.018;2023-03-04T08:43:36;109.73;;;106.37;;
16147;SDS011;8179;59.364;18.018;2023-03-04T08:46:04;104.87;;;100.73;;
16147;SDS011;8179;59.364;18.018;2023-03-04T08:48:31;39.20;;;37.40;;
16147;SDS011;8179;59.364;18.018;2023-03-04T08:50:58;125.67;;;121.17;;
16147;SDS011;8179;59.364;18.018;2023-03-04T08:53:24;82.93;;;80.10;;
16147;SDS011;8179;59.364;18.018;2023-03-04T08:55:51;71.30;;;68.27;;
16147;SDS011;8179;59.364;18.018;2023-03-04T08:58:18;226.20;;;215.27;;
16147;SDS011;8179;59.364;18.018;2023-03-04T09:00:45;219.40;;;209.40;;
16147;SDS011;8179;59.364;18.018;2023-03-04T09:03:15;139.17;;;133.30;;
16147;SDS011;8179;59.364;18.018;2023-03-04T09:05:43;386.27;;;369.03;;
16147;SDS011;8179;59.364;18.018;2023-03-04T09:08:10;234.30;;;224.83;;
16147;SDS011;8179;59.364;18.018;2023-03-04T09:10:37;111.33;;;106.00;;
16147;SDS011;8179;59.364;18.018;2023-03-04T09:13:04;160.10;;;154.40;;
16147;SDS011;8179;59.364;18.018;2023-03-04T09:15:30;32.50;;;30.67;;
16147;SDS011;8179;59.364;18.018;2023-03-04T09:18:00;158.77;;;151.37;;
16147;SDS011;8179;59.364;18.018;2023-03-04T09:20:28;66.93;;;64.63;;
16147;SDS011;8179;59.364;18.018;2023-03-04T09:22:54;1999.90;;;999.90;;
16147;SDS011;8179;59.364;18.018;2023-03-04T09:25:22;1999.90;;;999.90;;
16147;SDS011;8179;59.364;18.018;2023-03-04T09:27:49;1999.90;;;999.90;;
16147;SDS011;8179;59.364;18.018;2023-03-04T09:30:16;1999.90;;;999.90;;
16147;SDS011;8179;59.364;18.018;2023-03-04T09:32:42;1999.90;;;999.90;;
16147;SDS011;8179;59.364;18.018;2023-03-04T09:35:09;1999.90;;;999.90;;
16147;SDS011;8179;59.364;18.018;2023-03-04T09:37:37;1999.90;;;999.90;;
16147;SDS011;8179;59.364;18.018;2023-03-04T09:40:04;1999.90;;;999.90;;
16147;SDS011;8179;59.364;18.018;2023-03-04T09:42:32;1999.90;;;999.90;;
16147;SDS011;8179;59.364;18.018;2023-03-04T09:45:00;1999.90;;;999.90;;
16147;SDS011;8179;59.364;18.018;2023-03-04T09:47:27;1999.90;;;999.90;;
16147;SDS011;8179;59.364;18.018;2023-03-04T09:49:55;1999.90;;;999.90;;
16147;SDS011;8179;59.364;18.018;2023-03-04T09:52:26;1999.90;;;999.90;;
16147;SDS011;8179;59.364;18.018;2023-03-04T09:54:58;1999.90;;;999.90;;
16147;SDS011;8179;59.364;18.018;2023-03-04T09:57:27;1999.90;;;999.90;;
16147;SDS011;8179;59.364;18.018;2023-03-04T10:00:01;1999.90;;;999.90;;
16147;SDS011;8179;59.364;18.018;2023-03-04T10:02:34;1999.90;;;999.90;;
16147;SDS011;8179;59.364;18.018;2023-03-04T10:05:03;1999.90;;;999.90;;
16147;SDS011;8179;59.364;18.018;2023-03-04T10:07:32;1999.90;;;999.90;;
16147;SDS011;8179;59.364;18.018;2023-03-04T10:10:01;1999.90;;;999.90;;
16147;SDS011;8179;59.364;18.018;2023-03-04T10:12:29;1999.90;;;999.90;;
16147;SDS011;8179;59.364;18.018;2023-03-04T10:14:58;1999.90;;;999.90;;
16147;SDS011;8179;59.364;18.018;2023-03-04T10:17:28;1999.90;;;999.90;;
16147;SDS011;8179;59.364;18.018;2023-03-04T10:19:56;1999.90;;;999.90;;
16147;SDS011;8179;59.364;18.018;2023-03-04T10:22:26;1999.90;;;999.90;;
16147;SDS011;8179;59.364;18.018;2023-03-04T10:24:57;1999.90;;;999.90;;
16147;SDS011;8179;59.364;18.018;2023-03-04T10:27:25;1999.90;;;999.90;;
16147;SDS011;8179;59.364;18.018;2023-03-04T10:29:54;1999.90;;;999.90;;
16147;SDS011;8179;59.364;18.018;2023-03-04T10:32:21;1999.90;;;999.90;;
16147;SDS011;8179;59.364;18.018;2023-03-04T10:34:48;1999.90;;;999.90;;
16147;SDS011;8179;59.364;18.018;2023-03-04T10:37:14;1999.90;;;999.90;;
16147;SDS011;8179;59.364;18.018;2023-03-04T10:39:42;1999.90;;;999.90;;
16147;SDS011;8179;59.364;18.018;2023-03-04T10:44:54;1999.90;;;999.90;;
16147;SDS011;8179;59.364;18.018;2023-03-04T10:47:22;1999.90;;;999.90;;
16147;SDS011;8179;59.364;18.018;2023-03-04T10:49:49;1999.90;;;999.90;;
16147;SDS011;8179;59.364;18.018;2023-03-04T10:52:18;1999.90;;;999.90;;
16147;SDS011;8179;59.364;18.018;2023-03-04T10:54:48;1999.90;;;999.90;;
16147;SDS011;8179;59.364;18.018;2023-03-04T10:57:16;1999.90;;;999.90;;
16147;SDS011;8179;59.364;18.018;2023-03-04T10:59:45;1999.90;;;999.90;;
16147;SDS011;8179;59.364;18.018;2023-03-04T11:02:18;1999.90;;;999.90;;
16147;SDS011;8179;59.364;18.018;2023-03-04T11:04:49;1999.90;;;999.90;;
16147;SDS011;8179;59.364;18.018;2023-03-04T11:07:17;1999.90;;;999.90;;
16147;SDS011;8179;59.364;18.018;2023-03-04T11:09:44;1999.90;;;999.90;;
16147;SDS011;8179;59.364;18.018;2023-03-04T11:12:11;1999.90;;;999.90;;
16147;SDS011;8179;59.364;18.018;2023-03-04T11:14:39;1999.90;;;999.90;;
16147;SDS011;8179;59.364;18.018;2023-03-04T11:17:15;1999.90;;;999.90;;
16147;SDS011;8179;59.364;18.018;2023-03-04T11:19:44;1999.90;;;999.90;;
16147;SDS011;8179;59.364;18.018;2023-03-04T11:22:13;1999.90;;;999.90;;
16147;SDS011;8179;59.364;18.018;2023-03-04T11:24:41;1999.90;;;999.90;;
16147;SDS011;8179;59.364;18.018;2023-03-04T11:27:14;1999.90;;;999.90;;
16147;SDS011;8179;59.364;18.018;2023-03-04T11:29:42;1999.90;;;999.90;;
16147;SDS011;8179;59.364;18.018;2023-03-04T11:32:10;1999.90;;;999.90;;
16147;SDS011;8179;59.364;18.018;2023-03-04T11:34:40;1999.90;;;999.90;;
16147;SDS011;8179;59.364;18.018;2023-03-04T11:37:11;1435.83;;;763.13;;
16147;SDS011;8179;59.364;18.018;2023-03-04T11:39:40;1999.90;;;999.90;;
16147;SDS011;8179;59.364;18.018;2023-03-04T11:42:11;1999.90;;;999.90;;
16147;SDS011;8179;59.364;18.018;2023-03-04T11:44:38;1999.90;;;999.90;;
16147;SDS011;8179;59.364;18.018;2023-03-04T11:49:59;1999.90;;;999.90;;
16147;SDS011;8179;59.364;18.018;2023-03-04T11:55:20;1999.90;;;999.90;;
16147;SDS011;8179;59.364;18.018;2023-03-04T11:57:53;1492.23;;;813.03;;
16147;SDS011;8179;59.364;18.018;2023-03-04T12:00:26;1999.90;;;999.90;;
16147;SDS011;8179;59.364;18.018;2023-03-04T12:03:11;1999.90;;;999.90;;
16147;SDS011;8179;59.364;18.018;2023-03-04T12:05:42;1999.90;;;999.90;;
16147;SDS011;8179;59.364;18.018;2023-03-04T12:08:21;1388.67;;;718.97;;
16147;SDS011;8179;59.364;18.018;2023-03-04T12:10:57;1999.90;;;999.90;;
16147;SDS011;8179;59.364;18.018;2023-03-04T12:13:39;1999.90;;;999.90;;
16147;SDS011;8179;59.364;18.018;2023-03-04T12:16:10;1999.90;;;999.90;;
16147;SDS011;8179;59.364;18.018;2023-03-04T12:18:43;1999.90;;;999.90;;
16147;SDS011;8179;59.364;18.018;2023-03-04T12:21:17;1999.90;;;999.90;;
16147;SDS011;8179;59.364;18.018;2023-03-04T12:26:32;1999.90;;;999.90;;
16147;SDS011;8179;59.364;18.018;2023-03-04T12:29:03;1999.90;;;999.90;;
16147;SDS011;8179;59.364;18.018;2023-03-04T12:31:34;1999.90;;;999.90;;
16147;SDS011;8179;59.364;18.018;2023-03-04T12:34:05;1999.90;;;999.90;;
16147;SDS011;8179;59.364;18.018;2023-03-04T12:36:37;1999.90;;;999.90;;
16147;SDS011;8179;59.364;18.018;2023-03-04T12:39:10;1999.90;;;999.90;;
16147;SDS011;8179;59.364;18.018;2023-03-04T12:41:46;1999.90;;;999.90;;
16147;SDS011;8179;59.364;18.018;2023-03-04T12:44:15;1999.90;;;999.90;;
16147;SDS011;8179;59.364;18.018;2023-03-04T12:46:56;1999.90;;;999.90;;
16147;SDS011;8179;59.364;18.018;2023-03-04T12:49:45;1999.90;;;999.90;;
16147;SDS011;8179;59.364;18.018;2023-03-04T12:52:15;1999.90;;;999.90;;
16147;SDS011;8179;59.364;18.018;2023-03-04T12:54:47;1999.90;;;999.90;;
16147;SDS011;8179;59.364;18.018;2023-03-04T12:57:17;1999.90;;;999.90;;
16147;SDS011;8179;59.364;18.018;2023-03-04T12:59:56;1999.90;;;999.90;;
16147;SDS011;8179;59.364;18.018;2023-03-04T13:02:34;1999.90;;;999.90;;
16147;SDS011;8179;59.364;18.018;2023-03-04T13:05:11;1999.90;;;999.90;;
16147;SDS011;8179;59.364;18.018;2023-03-04T13:07:41;1999.90;;;999.90;;
16147;SDS011;8179;59.364;18.018;2023-03-04T13:10:13;1475.17;;;800.77;;
16147;SDS011;8179;59.364;18.018;2023-03-04T13:12:48;1999.90;;;999.90;;
16147;SDS011;8179;59.364;18.018;2023-03-04T13:15:16;1999.90;;;999.90;;
16147;SDS011;8179;59.364;18.018;2023-03-04T13:17:45;1999.90;;;999.90;;
16147;SDS011;8179;59.364;18.018;2023-03-04T13:20:19;1999.90;;;999.90;;
16147;SDS011;8179;59.364;18.018;2023-03-04T13:22:50;1999.90;;;999.90;;
16147;SDS011;8179;59.364;18.018;2023-03-04T13:25:28;1999.90;;;999.90;;
16147;SDS011;8179;59.364;18.018;2023-03-04T13:28:11;1999.90;;;999.90;;
16147;SDS011;8179;59.364;18.018;2023-03-04T13:31:03;1999.90;;;999.90;;
16147;SDS011;8179;59.364;18.018;2023-03-04T13:33:45;1999.90;;;999.90;;
16147;SDS011;8179;59.364;18.018;2023-03-04T13:36:25;1999.90;;;999.90;;
16147;SDS011;8179;59.364;18.018;2023-03-04T13:38:56;1999.90;;;999.90;;
16147;SDS011;8179;59.364;18.018;2023-03-04T13:41:23;1999.90;;;999.90;;
16147;SDS011;8179;59.364;18.018;2023-03-04T13:43:56;1999.90;;;999.90;;
16147;SDS011;8179;59.364;18.018;2023-03-04T13:46:30;995.70;;;627.40;;
16147;SDS011;8179;59.364;18.018;2023-03-04T13:49:04;1999.90;;;999.90;;
16147;SDS011;8179;59.364;18.018;2023-03-04T13:51:32;1999.90;;;999.90;;
16147;SDS011;8179;59.364;18.018;2023-03-04T13:54:10;1999.90;;;999.90;;
16147;SDS011;8179;59.364;18.018;2023-03-04T13:56:38;770.73;;;429.07;;
16147;SDS011;8179;59.364;18.018;2023-03-04T13:59:18;1999.90;;;999.90;;
16147;SDS011;8179;59.364;18.018;2023-03-04T14:04:37;1999.90;;;999.90;;
16147;SDS011;8179;59.364;18.018;2023-03-04T14:07:16;1999.90;;;999.90;;
16147;SDS011;8179;59.364;18.018;2023-03-04T14:09:52;1999.90;;;999.90;;
16147;SDS011;8179;59.364;18.018;2023-03-04T14:12:19;1999.90;;;999.90;;
16147;SDS011;8179;59.364;18.018;2023-03-04T14:14:47;1999.90;;;999.90;;
16147;SDS011;8179;59.364;18.018;2023-03-04T14:17:16;1999.90;;;999.90;;
16147;SDS011;8179;59.364;18.018;2023-03-04T14:19:45;1999.90;;;999.90;;
16147;SDS011;8179;59.364;18.018;2023-03-04T14:22:19;1999.90;;;999.90;;
16147;SDS011;8179;59.364;18.018;2023-03-04T14:24:54;1999.90;;;999.90;;